Time;durP1;ratioP1;P1;durP2;ratioP2;P2;SDS_P1;SDS_P2;PMS_P1;PMS_P2;Temp;Humidity;BMP_temperature;BMP_pressure;BME280_temperature;BME280_humidity;BME280_pressure;Samples;Min_cycle;Max_cycle;Signal;HPM_P1;HPM_P2
2023/09/13 00:01:56;;;;;;;15.03;7.70;;;21.40;99.90;;;;;;20833100;28;20652;-64
2023/09/13 00:11:58;;;;;;;12.60;7.43;;;21.30;99.90;;;;;;20832385;28;20236;-65
2023/09/13 00:22:00;;;;;;;15.23;7.90;;;21.30;99.90;;;;;;20831066;28;20205;-65
2023/09/13 00:32:02;;;;;;;9.87;7.43;;;21.20;99.90;;;;;;20844690;28;20243;-67
2023/09/13 00:42:04;;;;;;;13.73;8.17;;;21.00;99.90;;;;;;20830737;28;20287;-64
2023/09/13 00:52:06;;;;;;;12.07;8.30;;;21.10;99.90;;;;;;20829721;28;20331;-66
2023/09/13 01:02:08;;;;;;;9.13;7.17;;;21.00;99.90;;;;;;20829605;28;20296;-66
2023/09/13 01:12:09;;;;;;;11.20;8.10;;;21.00;99.90;;;;;;20829575;28;20315;-65
2023/09/13 01:22:44;;;;;;;10.80;7.70;;;21.00;99.90;;;;;;20829086;28;20552;-66
2023/09/13 01:32:47;;;;;;;10.83;8.13;;;20.90;99.90;;;;;;20833290;28;20576;-69
2023/09/13 01:42:49;;;;;;;10.10;7.30;;;20.90;99.90;;;;;;20844146;28;20540;-64
2023/09/13 01:52:52;;;;;;;9.17;7.23;;;;;;;;;;20843102;28;20236;-66
2023/09/13 02:02:54;;;;;;;11.67;7.37;;;;;;;;;;20842614;28;20212;-66
2023/09/13 02:12:56;;;;;;;13.53;8.00;;;;;;;;;;20842046;28;20290;-64
2023/09/13 02:22:59;;;;;;;9.43;7.53;;;;;;;;;;20841000;28;20208;-64
2023/09/13 02:33:00;;;;;;;12.57;7.60;;;20.90;99.90;;;;;;20840010;28;20596;-65
2023/09/13 02:43:02;;;;;;;15.27;7.40;;;20.80;99.90;;;;;;20839205;28;20212;-65
2023/09/13 02:53:04;;;;;;;13.87;8.30;;;20.80;99.90;;;;;;20838367;28;20276;-69
2023/09/13 03:03:06;;;;;;;11.40;7.60;;;20.80;99.90;;;;;;20837783;28;20211;-65
2023/09/13 03:13:08;;;;;;;10.10;7.70;;;20.80;99.90;;;;;;20837210;28;20272;-69
2023/09/13 03:23:09;;;;;;;11.17;7.47;;;20.80;99.90;;;;;;20836099;28;20212;-68
2023/09/13 03:33:11;;;;;;;9.00;6.90;;;20.80;99.90;;;;;;20835332;28;20322;-67
2023/09/13 03:43:13;;;;;;;11.70;7.60;;;20.70;99.90;;;;;;20834891;28;20258;-68
2023/09/13 03:53:15;;;;;;;11.37;7.73;;;20.70;99.90;;;;;;20832756;28;20275;-69
2023/09/13 04:03:17;;;;;;;13.33;8.97;;;20.60;99.90;;;;;;20832821;28;20299;-69
2023/09/13 04:13:18;;;;;;;11.57;7.97;;;20.50;99.90;;;;;;20832565;28;20642;-68
2023/09/13 04:23:20;;;;;;;10.73;7.10;;;20.50;99.90;;;;;;20831517;28;20207;-66
2023/09/13 04:33:45;;;;;;;8.03;6.73;;;20.40;99.90;;;;;;20830834;28;20319;-66
2023/09/13 04:43:47;;;;;;;9.30;5.60;;;20.40;99.90;;;;;;20830857;28;20296;-64
2023/09/13 04:53:49;;;;;;;6.23;5.03;;;20.40;99.90;;;;;;20829575;28;20248;-64
2023/09/13 05:03:56;;;;;;;11.63;5.60;;;;;;;;;;20828948;28;20204;-63
2023/09/13 05:14:14;;;;;;;9.13;5.33;;;;;;;;;;20844907;28;20588;-63
2023/09/13 05:24:16;;;;;;;4.80;4.10;;;;;;;;;;20845174;28;20259;-64
2023/09/13 05:34:18;;;;;;;6.30;4.23;;;;;;;;;;20843904;28;20776;-64
2023/09/13 05:44:22;;;;;;;13.30;5.30;;;;;;;;;;20842979;28;20625;-63
2023/09/13 05:54:24;;;;;;;8.23;4.70;;;;;;;;;;20842168;28;20256;-63
2023/09/13 06:04:26;;;;;;;4.83;3.93;;;;;;;;;;20841820;28;20205;-67
2023/09/13 06:14:29;;;;;;;6.33;3.93;;;;;;;;;;20841420;28;20236;-63
2023/09/13 06:24:31;;;;;;;4.10;3.10;;;;;;;;;;20839917;28;20208;-63
2023/09/13 06:34:33;;;;;;;4.40;3.30;;;;;;;;;;20839407;28;20319;-63
2023/09/13 06:44:36;;;;;;;5.40;3.07;;;;;;;;;;20838766;28;20250;-63
2023/09/13 06:54:48;;;;;;;3.43;3.00;;;;;;;;;;20838206;28;20255;-64
2023/09/13 07:04:53;;;;;;;3.47;3.17;;;20.50;99.90;;;;;;20837756;28;20672;-63
2023/09/13 07:14:57;;;;;;;5.47;3.33;;;21.70;99.90;;;;;;20835818;28;20247;-64
2023/09/13 07:24:59;;;;;;;6.27;4.57;;;22.00;99.90;;;;;;20835222;28;20300;-63
2023/09/13 07:35:03;;;;;;;5.40;3.97;;;21.90;99.90;;;;;;20833269;28;20596;-63
2023/09/13 07:45:06;;;;;;;4.20;3.30;;;21.70;99.80;;;;;;20833202;28;20208;-63
2023/09/13 07:55:08;;;;;;;3.93;3.50;;;21.80;99.80;;;;;;20833144;28;20576;-63
2023/09/13 08:05:10;;;;;;;4.90;3.97;;;21.80;99.70;;;;;;20847620;28;20212;-63
2023/09/13 08:15:12;;;;;;;5.33;4.50;;;21.80;99.80;;;;;;20831690;28;20272;-63
2023/09/13 08:25:14;;;;;;;4.37;3.97;;;21.70;99.80;;;;;;20831414;28;20205;-63
2023/09/13 08:35:15;;;;;;;7.87;4.40;;;21.90;99.70;;;;;;20830872;28;20707;-64
2023/09/13 08:45:17;;;;;;;5.87;4.23;;;22.30;99.10;;;;;;20829821;28;20212;-63
2023/09/13 08:55:20;;;;;;;7.23;5.10;;;22.50;98.60;;;;;;20830035;28;20779;-63
2023/09/13 09:05:26;;;;;;;5.90;4.33;;;22.60;98.30;;;;;;20829407;28;20215;-64
2023/09/13 09:15:30;;;;;;;7.87;5.07;;;22.60;98.40;;;;;;20829277;28;20228;-68
2023/09/13 09:25:32;;;;;;;10.67;5.03;;;22.60;98.10;;;;;;20828882;28;20205;-69
2023/09/13 09:35:35;;;;;;;6.03;4.93;;;22.60;97.90;;;;;;20827828;28;20339;-65
2023/09/13 09:45:37;;;;;;;10.67;6.37;;;22.80;98.00;;;;;;20827734;28;20205;-64
2023/09/13 09:55:40;;;;;;;6.73;5.00;;;22.70;97.50;;;;;;20834737;28;20737;-63
2023/09/13 10:06:10;;;;;;;5.87;4.67;;;22.60;97.50;;;;;;20842199;28;20572;-63
2023/09/13 10:16:14;;;;;;;7.77;4.80;;;22.70;97.30;;;;;;20841440;28;20266;-64
2023/09/13 10:26:18;;;;;;;7.97;4.50;;;22.80;97.00;;;;;;20840565;28;20212;-63
2023/09/13 10:36:36;;;;;;;6.80;5.40;;;22.90;96.90;;;;;;20839432;28;20236;-64
2023/09/13 10:46:39;;;;;;;10.17;6.20;;;23.10;96.30;;;;;;20838882;28;20211;-64
2023/09/13 10:56:41;;;;;;;7.10;5.70;;;23.30;95.70;;;;;;20837733;28;20240;-66
2023/09/13 11:06:44;;;;;;;8.80;5.27;;;23.60;95.00;;;;;;20836319;28;20201;-66
2023/09/13 11:16:46;;;;;;;7.40;5.67;;;23.30;94.90;;;;;;20835863;28;20241;-66
2023/09/13 11:26:48;;;;;;;7.13;5.90;;;23.20;94.70;;;;;;20842231;28;20212;-64
2023/09/13 11:36:58;;;;;;;6.77;5.80;;;23.20;94.80;;;;;;20860567;28;20247;-63
2023/09/13 11:47:01;;;;;;;8.47;5.70;;;23.30;94.70;;;;;;20866387;28;20215;-63
2023/09/13 11:57:04;;;;;;;6.83;5.17;;;23.60;94.40;;;;;;20873322;28;20279;-63
2023/09/13 12:07:30;;;;;;;6.93;5.67;;;23.80;93.90;;;;;;20865600;28;20204;-64
2023/09/13 12:17:37;;;;;;;8.43;5.87;;;23.90;93.30;;;;;;20866806;28;20324;-64
2023/09/13 12:27:40;;;;;;;11.33;7.37;;;24.00;92.70;;;;;;20873499;28;20215;-65
2023/09/13 12:37:54;;;;;;;13.50;9.23;;;23.90;92.50;;;;;;20885100;28;20236;-66
2023/09/13 12:47:56;;;;;;;15.97;8.67;;;23.30;93.60;;;;;;20874093;28;20235;-65
2023/09/13 12:58:04;;;;;;;14.13;8.70;;;23.10;94.50;;;;;;20884868;28;20232;-67
2023/09/13 13:08:06;;;;;;;8.97;6.33;;;23.10;95.20;;;;;;20861587;28;20622;-65
2023/09/13 13:18:09;;;;;;;7.50;5.60;;;23.10;95.30;;;;;;20910072;28;20271;-64
2023/09/13 13:28:11;;;;;;;5.30;4.70;;;23.20;95.40;;;;;;20915907;28;20660;-67
2023/09/13 13:38:13;;;;;;;8.03;4.50;;;23.70;94.40;;;;;;20924650;28;20242;-67
2023/09/13 13:48:15;;;;;;;4.83;4.13;;;23.90;93.40;;;;;;20924363;28;20228;-69
2023/09/13 13:58:17;;;;;;;4.97;3.80;;;23.90;92.50;;;;;;20922899;28;20840;-66
2023/09/13 14:08:23;;;;;;;4.57;3.50;;;23.90;91.30;;;;;;20924531;28;20251;-65
2023/09/13 14:18:25;;;;;;;5.00;3.20;;;24.00;90.50;;;;;;20922582;28;20236;-65
2023/09/13 14:28:27;;;;;;;3.23;2.80;;;24.00;89.20;;;;;;20922825;28;20207;-63
2023/09/13 14:38:29;;;;;;;6.47;2.80;;;24.40;87.20;;;;;;20920671;28;20238;-65
2023/09/13 14:48:31;;;;;;;3.23;2.40;;;26.00;80.70;;;;;;20920082;28;20595;-64
2023/09/13 14:58:33;;;;;;;3.13;2.57;;;25.20;79.00;;;;;;20920523;28;20239;-64
2023/09/13 15:08:35;;;;;;;3.20;2.90;;;25.20;78.40;;;;;;20920151;28;20216;-64
2023/09/13 15:18:36;;;;;;;3.53;2.53;;;25.90;76.40;;;;;;20919025;28;20240;-66
2023/09/13 15:28:38;;;;;;;3.77;3.37;;;25.80;75.80;;;;;;20917965;28;20219;-63
2023/09/13 15:38:41;;;;;;;5.07;3.00;;;25.40;75.80;;;;;;20917075;28;20266;-63
2023/09/13 15:48:59;;;;;;;5.00;3.10;;;25.20;76.00;;;;;;20914538;28;20665;-63
2023/09/13 15:59:01;;;;;;;6.97;3.80;;;25.10;77.00;;;;;;20914924;28;20318;-63
2023/09/13 16:09:03;;;;;;;6.30;4.00;;;24.70;77.60;;;;;;20915670;28;20254;-63
2023/09/13 16:19:05;;;;;;;6.20;4.53;;;24.20;80.00;;;;;;20914468;28;20242;-66
2023/09/13 16:29:07;;;;;;;4.67;4.20;;;23.80;81.70;;;;;;20912978;28;20216;-66
2023/09/13 16:39:08;;;;;;;4.70;3.90;;;23.60;83.00;;;;;;20912607;28;20326;-68
2023/09/13 16:49:13;;;;;;;8.70;4.57;;;23.40;83.40;;;;;;20910125;28;20649;-67
2023/09/13 16:59:15;;;;;;;11.20;4.70;;;23.20;84.60;;;;;;20910680;28;20285;-68
2023/09/13 17:09:16;;;;;;;5.87;4.80;;;23.30;85.80;;;;;;20911367;28;20203;-67
2023/09/13 17:19:18;;;;;;;8.13;5.43;;;23.30;86.80;;;;;;20910441;28;20240;-69
2023/09/13 17:29:20;;;;;;;7.53;4.53;;;23.10;88.40;;;;;;20911255;28;20258;-69
2023/09/13 17:39:22;;;;;;;6.23;5.00;;;22.90;89.60;;;;;;20910376;28;20318;-69
2023/09/13 17:49:23;;;;;;;9.43;5.73;;;22.90;90.30;;;;;;20910197;28;20236;-72
2023/09/13 17:59:27;;;;;;;7.13;5.13;;;23.00;90.40;;;;;;20908866;28;20262;-67
2023/09/13 18:09:29;;;;;;;6.70;4.80;;;22.90;90.50;;;;;;20902872;28;20209;-66
2023/09/13 18:19:31;;;;;;;6.87;4.90;;;22.90;90.70;;;;;;20878572;28;20232;-64
2023/09/13 18:29:33;;;;;;;6.00;4.90;;;22.80;90.80;;;;;;20879123;28;20300;-65
2023/09/13 18:39:35;;;;;;;8.37;5.63;;;22.70;90.90;;;;;;20882143;28;20268;-62
2023/09/13 18:49:37;;;;;;;7.20;4.63;;;22.60;91.30;;;;;;20873255;28;20275;-68
2023/09/13 18:59:40;;;;;;;5.57;4.23;;;22.40;91.60;;;;;;20882280;28;20231;-65
2023/09/13 19:09:42;;;;;;;6.17;4.33;;;22.30;91.90;;;;;;20877147;28;20212;-65
2023/09/13 19:19:43;;;;;;;6.93;5.20;;;22.30;92.10;;;;;;20874415;28;20258;-64
2023/09/13 19:29:45;;;;;;;8.77;5.27;;;22.20;92.10;;;;;;20872133;28;20627;-64
2023/09/13 19:39:47;;;;;;;6.70;4.47;;;22.20;92.50;;;;;;20878159;28;20319;-63
2023/09/13 19:49:49;;;;;;;9.53;5.50;;;22.10;92.80;;;;;;20870634;28;20251;-63
2023/09/13 19:59:50;;;;;;;8.20;4.93;;;22.10;93.10;;;;;;20869988;28;20234;-64
2023/09/13 20:09:52;;;;;;;5.63;4.10;;;22.00;93.30;;;;;;20871666;28;20248;-65
2023/09/13 20:19:54;;;;;;;4.43;4.03;;;22.00;93.40;;;;;;20867748;28;20682;-63
2023/09/13 20:29:56;;;;;;;8.17;4.80;;;21.90;93.70;;;;;;20866999;28;20240;-63
2023/09/13 20:40:00;;;;;;;8.07;4.67;;;21.80;93.90;;;;;;20869466;28;20687;-66
2023/09/13 20:50:03;;;;;;;9.40;5.53;;;21.60;94.20;;;;;;20877687;28;20605;-64
2023/09/13 21:00:06;;;;;;;7.30;4.80;;;21.40;94.70;;;;;;20872326;28;20273;-62
2023/09/13 21:10:08;;;;;;;5.03;4.20;;;21.10;95.30;;;;;;20868786;28;20561;-63
2023/09/13 21:20:10;;;;;;;4.70;4.13;;;20.90;95.70;;;;;;20865671;28;20346;-62
2023/09/13 21:30:13;;;;;;;8.70;4.40;;;20.80;95.90;;;;;;20862210;28;20204;-62
2023/09/13 21:40:15;;;;;;;4.87;4.10;;;20.50;96.10;;;;;;20879629;28;20235;-62
2023/09/13 21:50:16;;;;;;;4.10;3.70;;;20.50;96.40;;;;;;20843229;28;20270;-64
2023/09/13 22:00:21;;;;;;;7.03;4.50;;;20.30;96.40;;;;;;20843565;28;20645;-61
2023/09/13 22:10:22;;;;;;;3.73;2.90;;;20.20;96.50;;;;;;20842699;28;20208;-61
2023/09/13 22:20:24;;;;;;;4.77;2.60;;;20.00;96.40;;;;;;20841532;28;20300;-61
2023/09/13 22:30:26;;;;;;;4.63;2.60;;;19.70;96.10;;;;;;20841041;28;20299;-62
2023/09/13 22:40:28;;;;;;;4.90;2.50;;;19.50;96.20;;;;;;20840576;28;20269;-66
2023/09/13 22:50:31;;;;;;;2.87;2.10;;;19.40;96.20;;;;;;20839457;28;20595;-62
2023/09/13 23:00:32;;;;;;;4.53;2.00;;;19.30;95.90;;;;;;20838693;28;20251;-61
2023/09/13 23:10:35;;;;;;;3.20;1.80;;;19.30;95.70;;;;;;20838193;28;20206;-61
2023/09/13 23:20:38;;;;;;;2.90;1.80;;;19.10;95.20;;;;;;20836908;28;20371;-61
2023/09/13 23:30:40;;;;;;;3.13;1.90;;;19.10;94.80;;;;;;20836335;28;20212;-62
2023/09/13 23:40:43;;;;;;;3.47;2.00;;;19.00;94.50;;;;;;20835793;28;20258;-61
2023/09/13 23:50:45;;;;;;;5.23;2.00;;;18.70;93.90;;;;;;20834826;28;20230;-62
